Time;durP1;ratioP1;P1;durP2;ratioP2;P2;SDS_P1;SDS_P2;PMS_P1;PMS_P2;Temp;Humidity;BMP_temperature;BMP_pressure;BME280_temperature;BME280_humidity;BME280_pressure;Samples;Min_cycle;Max_cycle;Signal;HPM_P1;HPM_P2
2022/05/17 00:01:59;;;;;;;18.48;9.15;;;;;;;;;;4959173;28;20051;-85
2022/05/17 00:04:25;;;;;;;16.17;8.43;;;;;;;;;;4959750;28;20050;-86
2022/05/17 00:06:51;;;;;;;19.52;7.72;;;;;;;;;;4959276;28;20047;-85
2022/05/17 00:09:17;;;;;;;17.67;7.63;;;;;;;;;;4959190;28;20494;-85
2022/05/17 00:11:47;;;;;;;15.05;7.32;;;;;;;;;;4976467;28;20043;-85
2022/05/17 00:14:13;;;;;;;16.05;7.30;;;;;;;;;;4976722;28;20389;-85
2022/05/17 00:16:40;;;;;;;17.25;7.30;;;;;;;;;;4976444;28;20046;-85
2022/05/17 00:19:07;;;;;;;20.73;7.95;;;;;;;;;;4959235;28;20049;-85
2022/05/17 00:21:33;;;;;;;19.25;7.57;;;;;;;;;;4958675;28;20568;-86
2022/05/17 00:23:59;;;;;;;16.83;6.88;;;;;;;;;;4942973;28;20057;-86
2022/05/17 00:26:25;;;;;;;14.80;7.10;;;;;;;;;;4959039;28;20043;-86
2022/05/17 00:28:51;;;;;;;17.98;7.30;;;;;;;;;;4958766;28;20493;-87
2022/05/17 00:31:17;;;;;;;17.27;7.00;;;;;;;;;;4976209;28;20039;-87
2022/05/17 00:33:43;;;;;;;23.65;7.95;;;;;;;;;;4958674;28;20178;-86
2022/05/17 00:36:09;;;;;;;16.50;7.55;;;;;;;;;;4958468;28;20125;-85
2022/05/17 00:38:35;;;;;;;21.27;7.30;;;;;;;;;;4975914;28;20043;-86
2022/05/17 00:41:02;;;;;;;19.08;7.22;;;;;;;;;;4958755;28;20045;-86
2022/05/17 00:43:30;;;;;;;19.15;7.32;;;;;;;;;;4958899;28;20082;-86
2022/05/17 00:45:59;;;;;;;25.58;7.00;;;;;;;;;;4958385;28;20339;-86
2022/05/17 00:48:26;;;;;;;21.67;6.72;;;;;;;;;;4957563;28;20042;-86
2022/05/17 00:50:54;;;;;;;19.45;7.18;;;;;;;;;;4958287;28;20102;-85
2022/05/17 00:53:21;;;;;;;18.60;7.20;;;;;;;;;;4975940;28;20238;-86
2022/05/17 00:55:52;;;;;;;19.52;5.93;;;;;;;;;;4958173;28;20110;-85
2022/05/17 00:58:38;;;;;;;19.80;6.88;;;;;;;;;;4958271;28;20043;-86
2022/05/17 01:01:07;;;;;;;16.92;7.20;;;;;;;;;;4957846;28;20049;-86
2022/05/17 01:03:45;;;;;;;19.08;7.07;;;;;;;;;;4958518;28;20047;-86
2022/05/17 01:06:11;;;;;;;16.55;6.38;;;;;;;;;;4958270;28;20042;-86
2022/05/17 01:08:37;;;;;;;13.00;6.10;;;;;;;;;;4958013;28;20383;-85
2022/05/17 01:11:03;;;;;;;17.23;6.57;;;;;;;;;;4958202;28;20057;-85
2022/05/17 01:16:14;;;;;;;20.50;6.32;;;;;;;;;;4975318;28;20499;-86
2022/05/17 01:18:41;;;;;;;15.60;6.50;;;;;;;;;;4957842;28;20043;-86
2022/05/17 01:21:07;;;;;;;18.23;6.70;;;;;;;;;;4957680;28;20564;-86
2022/05/17 01:23:34;;;;;;;22.40;6.72;;;;;;;;;;4958105;28;20394;-86
2022/05/17 01:26:00;;;;;;;16.13;6.57;;;;;;;;;;4957678;28;20046;-86
2022/05/17 01:28:27;;;;;;;16.45;5.93;;;;;;;;;;4957870;28;20057;-86
2022/05/17 01:30:54;;;;;;;17.65;6.43;;;;;;;;;;4975306;28;20366;-85
2022/05/17 01:33:21;;;;;;;23.52;6.72;;;;;;;;;;4957721;28;20054;-86
2022/05/17 01:35:48;;;;;;;19.25;6.60;;;;;;;;;;4957973;28;20046;-86
2022/05/17 01:38:14;;;;;;;17.48;6.30;;;;;;;;;;4957726;28;20202;-85
2022/05/17 01:40:40;;;;;;;14.55;5.72;;;;;;;;;;4957593;28;20537;-85
2022/05/17 01:43:07;;;;;;;14.88;5.65;;;;;;;;;;4957283;28;20053;-86
2022/05/17 01:45:33;;;;;;;16.50;6.32;;;;;;;;;;4957794;28;20527;-85
2022/05/17 01:47:59;;;;;;;20.38;6.28;;;;;;;;;;4957246;28;20047;-86
2022/05/17 01:50:25;;;;;;;14.88;5.45;;;;;;;;;;4957446;28;20129;-85
2022/05/17 01:52:51;;;;;;;18.15;6.18;;;;;;;;;;4974424;28;20053;-85
2022/05/17 01:55:17;;;;;;;14.43;5.93;;;;;;;;;;4974749;28;20468;-85
2022/05/17 01:57:43;;;;;;;11.32;5.80;;;;;;;;;;4957030;28;20035;-85
2022/05/17 02:00:11;;;;;;;21.83;6.68;;;;;;;;;;4957472;28;20121;-85
2022/05/17 02:02:37;;;;;;;19.63;7.07;;;;;;;;;;4974567;28;20089;-86
2022/05/17 02:05:04;;;;;;;17.40;6.53;;;;;;;;;;4957122;28;20058;-86
2022/05/17 02:07:30;;;;;;;19.55;6.70;;;;;;;;;;4957373;28;20494;-86
2022/05/17 02:09:56;;;;;;;16.85;6.95;;;;;;;;;;4941082;28;20080;-86
2022/05/17 02:12:22;;;;;;;20.45;6.65;;;;;;;;;;4956923;28;20053;-86
2022/05/17 02:14:48;;;;;;;16.55;6.20;;;;;;;;;;4974303;28;20043;-85
2022/05/17 02:17:14;;;;;;;18.15;5.68;;;;;;;;;;4974133;28;20049;-86
2022/05/17 02:19:40;;;;;;;16.92;6.97;;;;;;;;;;4973989;28;20506;-86
2022/05/17 02:22:07;;;;;;;17.23;6.60;;;;;;;;;;4956748;28;20046;-86
2022/05/17 02:24:33;;;;;;;15.30;5.68;;;;;;;;;;4957051;28;20129;-86
2022/05/17 02:26:59;;;;;;;17.52;6.35;;;;;;;;;;4973979;28;20486;-86
2022/05/17 02:29:25;;;;;;;18.40;6.70;;;;;;;;;;4957180;28;20050;-86
2022/05/17 02:31:51;;;;;;;17.50;5.90;;;;;;;;;;4956529;28;20553;-85
2022/05/17 02:34:18;;;;;;;18.13;6.68;;;;;;;;;;4956794;28;20105;-86
2022/05/17 02:36:44;;;;;;;18.00;6.35;;;;;;;;;;4956819;28;20390;-86
2022/05/17 02:39:10;;;;;;;19.67;6.72;;;;;;;;;;4956597;28;20537;-86
2022/05/17 02:41:36;;;;;;;20.77;6.75;;;;;;;;;;4956945;28;20078;-86
2022/05/17 02:44:02;;;;;;;17.00;6.50;;;;;;;;;;4956540;28;20071;-86
2022/05/17 02:46:29;;;;;;;14.02;6.20;;;;;;;;;;4974263;28;20482;-85
2022/05/17 02:48:55;;;;;;;18.35;6.70;;;;;;;;;;4956379;28;20042;-85
2022/05/17 02:51:21;;;;;;;15.38;6.15;;;;;;;;;;4957143;28;20125;-86
2022/05/17 02:53:47;;;;;;;16.52;6.13;;;;;;;;;;4956381;28;20057;-86
2022/05/17 02:56:13;;;;;;;14.35;6.60;;;;;;;;;;4956572;28;20042;-86
2022/05/17 02:58:39;;;;;;;14.35;5.82;;;;;;;;;;4956393;28;20046;-86
2022/05/17 03:01:06;;;;;;;17.02;6.65;;;;;;;;;;4956706;28;20178;-86
2022/05/17 03:03:32;;;;;;;16.67;5.80;;;;;;;;;;4956598;28;20043;-86
2022/05/17 03:05:58;;;;;;;13.52;5.93;;;;;;;;;;4973963;28;20066;-85
2022/05/17 03:08:24;;;;;;;15.38;6.25;;;;;;;;;;4973458;28;20494;-86
2022/05/17 03:10:50;;;;;;;16.95;6.68;;;;;;;;;;4957476;28;20126;-86
2022/05/17 03:13:16;;;;;;;17.30;6.57;;;;;;;;;;4959979;28;20125;-87
2022/05/17 03:15:42;;;;;;;16.42;6.53;;;;;;;;;;4944267;28;20102;-86
2022/05/17 03:18:08;;;;;;;16.63;6.63;;;;;;;;;;4960119;28;20043;-85
2022/05/17 03:20:35;;;;;;;17.42;6.32;;;;;;;;;;4959984;28;20063;-88
2022/05/17 03:23:01;;;;;;;12.98;5.72;;;;;;;;;;4959795;28;20494;-86
2022/05/17 03:25:27;;;;;;;16.45;6.55;;;;;;;;;;4960016;28;20050;-86
2022/05/17 03:27:54;;;;;;;13.90;6.28;;;;;;;;;;4959778;28;20073;-85
2022/05/17 03:30:20;;;;;;;16.30;6.95;;;;;;;;;;4959822;28;20125;-85
2022/05/17 03:32:46;;;;;;;18.50;7.07;;;;;;;;;;4977128;28;20458;-86
2022/05/17 03:35:12;;;;;;;14.10;7.07;;;;;;;;;;4960035;28;20130;-85
2022/05/17 03:37:38;;;;;;;16.55;7.43;;;;;;;;;;4959649;28;20169;-86
2022/05/17 03:40:07;;;;;;;14.00;7.00;;;;;;;;;;4959614;28;20486;-86
2022/05/17 03:42:34;;;;;;;17.35;6.47;;;;;;;;;;4943507;28;20453;-86
2022/05/17 03:45:00;;;;;;;14.45;6.65;;;;;;;;;;4977196;28;20038;-86
2022/05/17 03:47:26;;;;;;;18.30;6.55;;;;;;;;;;4959682;28;20060;-86
2022/05/17 03:49:52;;;;;;;15.82;6.88;;;;;;;;;;4959512;28;20486;-85
2022/05/17 03:52:18;;;;;;;13.90;6.40;;;;;;;;;;4959629;28;20046;-85
2022/05/17 03:54:44;;;;;;;14.70;6.40;;;;;;;;;;4959319;28;20042;-85
2022/05/17 03:57:10;;;;;;;18.40;7.30;;;;;;;;;;4959512;28;20047;-86
2022/05/17 03:59:36;;;;;;;14.30;6.75;;;;;;;;;;4976684;28;20042;-86
2022/05/17 04:02:03;;;;;;;17.67;7.00;;;;;;;;;;4959406;28;20058;-85
2022/05/17 04:04:29;;;;;;;14.40;6.72;;;;;;;;;;4942976;28;20043;-86
2022/05/17 04:06:55;;;;;;;12.48;5.72;;;;;;;;;;4959495;28;20054;-86
2022/05/17 04:09:21;;;;;;;15.60;6.78;;;;;;;;;;4958999;28;20047;-85
2022/05/17 04:11:47;;;;;;;14.07;6.35;;;;;;;;;;4959018;28;20050;-86
2022/05/17 04:14:13;;;;;;;15.43;6.10;;;;;;;;;;4958934;28;20051;-85
2022/05/17 04:16:40;;;;;;;14.65;6.63;;;;;;;;;;4958987;28;20093;-87
2022/05/17 04:19:06;;;;;;;19.75;7.32;;;;;;;;;;4958711;28;20039;-87
2022/05/17 04:21:33;;;;;;;15.40;6.75;;;;;;;;;;4958605;28;20312;-86
2022/05/17 04:23:59;;;;;;;15.10;6.68;;;;;;;;;;4958799;28;20055;-86
2022/05/17 04:26:25;;;;;;;18.27;6.10;;;;;;;;;;4976288;28;20113;-86
2022/05/17 04:28:52;;;;;;;19.20;6.55;;;;;;;;;;4958707;28;20043;-86
2022/05/17 04:31:18;;;;;;;15.40;6.63;;;;;;;;;;4976269;28;20054;-87
2022/05/17 04:33:44;;;;;;;13.45;5.80;;;;;;;;;;4976026;28;20225;-86
2022/05/17 04:36:11;;;;;;;19.23;6.72;;;;;;;;;;4958735;28;20634;-87
2022/05/17 04:38:37;;;;;;;15.35;6.22;;;;;;;;;;4958421;28;20049;-87
2022/05/17 04:41:03;;;;;;;17.48;5.65;;;;;;;;;;4958612;28;20042;-86
2022/05/17 04:43:29;;;;;;;16.75;6.35;;;;;;;;;;4975810;28;20109;-86
2022/05/17 04:45:55;;;;;;;14.38;5.57;;;;;;;;;;4958543;28;20057;-85
2022/05/17 04:48:24;;;;;;;15.90;5.97;;;;;;;;;;4958391;28;20105;-87
2022/05/17 04:50:50;;;;;;;14.52;5.60;;;;;;;;;;4958788;28;20122;-86
2022/05/17 04:53:17;;;;;;;15.02;5.47;;;;;;;;;;4942103;28;20047;-87
2022/05/17 04:55:43;;;;;;;14.18;5.70;;;;;;;;;;4958391;28;20047;-86
2022/05/17 04:58:09;;;;;;;12.70;5.70;;;;;;;;;;4958130;28;20042;-87
2022/05/17 05:00:35;;;;;;;14.05;5.82;;;;;;;;;;4975574;28;20039;-85
2022/05/17 05:03:01;;;;;;;13.95;5.55;;;;;;;;;;4958234;28;20039;-86
2022/05/17 05:05:27;;;;;;;17.80;5.65;;;;;;;;;;4958075;28;20456;-86
2022/05/17 05:07:53;;;;;;;13.30;5.05;;;;;;;;;;4958206;28;20109;-87
2022/05/17 05:10:19;;;;;;;15.68;6.22;;;;;;;;;;4958169;28;20055;-86
2022/05/17 05:12:45;;;;;;;16.50;5.60;;;;;;;;;;4958025;28;20093;-85
2022/05/17 05:15:12;;;;;;;13.23;5.00;;;;;;;;;;4957794;28;20039;-86
2022/05/17 05:17:38;;;;;;;11.93;5.07;;;;;;;;;;4957799;28;20046;-87
2022/05/17 05:20:05;;;;;;;18.67;6.35;;;;;;;;;;4957458;28;20141;-87
2022/05/17 05:22:33;;;;;;;14.23;5.60;;;;;;;;;;4958202;28;20055;-86
2022/05/17 05:24:59;;;;;;;14.48;4.82;;;;;;;;;;4957730;28;20084;-87
2022/05/17 05:27:25;;;;;;;17.50;6.18;;;;;;;;;;4975371;28;20051;-87
2022/05/17 05:29:51;;;;;;;14.48;6.15;;;;;;;;;;4957605;28;20494;-86
2022/05/17 05:32:17;;;;;;;13.57;5.90;;;;;;;;;;4957623;28;20050;-86
2022/05/17 05:34:43;;;;;;;15.07;5.65;;;;;;;;;;4957095;28;20093;-87
2022/05/17 05:37:09;;;;;;;15.90;6.25;;;;;;;;;;4957917;28;20042;-87
2022/05/17 05:39:35;;;;;;;13.02;6.95;;;;;;;;;;4957626;28;20430;-86
2022/05/17 05:42:01;;;;;;;15.35;5.55;;;;;;;;;;4974895;28;20051;-86
2022/05/17 05:44:27;;;;;;;12.27;5.57;;;;;;;;;;4957511;28;20386;-88
2022/05/17 05:46:53;;;;;;;17.75;6.45;;;;;;;;;;4957481;28;20065;-87
2022/05/17 05:49:19;;;;;;;17.15;6.00;;;;;;;;;;4957209;28;20476;-85
2022/05/17 05:51:46;;;;;;;14.25;5.53;;;;;;;;;;4941529;28;20059;-85
2022/05/17 05:54:12;;;;;;;13.60;5.88;;;;;;;;;;4974659;28;20046;-85
2022/05/17 05:56:38;;;;;;;14.98;5.45;;;;;;;;;;4957348;28;20043;-86
2022/05/17 05:59:04;;;;;;;17.88;5.95;;;;;;;;;;4957118;28;20050;-86
2022/05/17 06:01:30;;;;;;;16.33;5.70;;;;;;;;;;4957209;28;20038;-85
2022/05/17 06:03:56;;;;;;;18.02;5.43;;;;;;;;;;4957194;28;20047;-85
2022/05/17 06:06:22;;;;;;;14.57;5.43;;;;;;;;;;4957221;28;20057;-86
2022/05/17 06:08:48;;;;;;;13.68;4.95;;;;;;;;;;4956864;28;20180;-85
2022/05/17 06:11:15;;;;;;;15.43;5.57;;;;;;;;;;4957219;28;20050;-86
2022/05/17 06:13:41;;;;;;;14.48;5.57;;;;;;;;;;4941050;28;20375;-85
2022/05/17 06:16:08;;;;;;;12.40;5.00;;;;;;;;;;4974298;28;20054;-86
2022/05/17 06:18:34;;;;;;;14.63;6.22;;;;;;;;;;4974453;28;20042;-85
2022/05/17 06:21:01;;;;;;;13.98;4.95;;;;;;;;;;4974068;28;20051;-86
2022/05/17 06:23:27;;;;;;;14.82;5.43;;;;;;;;;;4957115;28;20097;-85
2022/05/17 06:25:53;;;;;;;15.05;5.50;;;;;;;;;;4957027;28;20043;-86
2022/05/17 06:28:19;;;;;;;17.25;5.80;;;;;;;;;;4959823;28;20104;-85
2022/05/17 06:30:45;;;;;;;16.92;5.78;;;;;;;;;;4972554;28;20122;-88
2022/05/17 06:33:12;;;;;;;14.65;5.28;;;;;;;;;;4964760;28;20066;-90
2022/05/17 06:35:39;;;;;;;14.20;5.28;;;;;;;;;;4972888;28;20085;-85
2022/05/17 06:38:05;;;;;;;11.82;5.93;;;;;;;;;;4972297;28;20113;-85
2022/05/17 06:40:32;;;;;;;15.10;5.90;;;;;;;;;;4972389;28;20145;-85
2022/05/17 06:42:58;;;;;;;17.55;5.88;;;;;;;;;;4972278;28;20082;-85
2022/05/17 06:45:24;;;;;;;18.20;5.43;;;;;;;;;;4974470;28;20042;-85
2022/05/17 06:47:50;;;;;;;16.52;5.57;;;;;;;;;;4976657;28;20068;-85
2022/05/17 06:50:16;;;;;;;13.13;5.03;;;;;;;;;;4976965;28;20129;-91
2022/05/17 06:52:44;;;;;;;15.65;5.13;;;;;;;;;;4977511;28;20046;-86
2022/05/17 06:55:10;;;;;;;15.40;5.30;;;;;;;;;;4977846;28;20394;-89
2022/05/17 06:57:36;;;;;;;12.38;4.95;;;;;;;;;;4976116;28;20042;-86
2022/05/17 07:00:05;;;;;;;14.23;5.30;;;;;;;;;;4976043;28;20046;-86
2022/05/17 07:02:31;;;;;;;10.88;5.20;;;;;;;;;;4975973;28;20519;-84
2022/05/17 07:04:57;;;;;;;11.10;4.80;;;;;;;;;;4975990;28;20055;-87
2022/05/17 07:07:23;;;;;;;14.20;5.18;;;;;;;;;;4976484;28;20475;-88
2022/05/17 07:15:19;;;;;;;13.35;4.70;;;;;;;;;;4976964;28;20042;-85
2022/05/17 07:17:45;;;;;;;16.88;5.20;;;;;;;;;;4976100;28;20050;-85
2022/05/17 07:20:11;;;;;;;14.02;5.53;;;;;;;;;;4976042;28;20076;-85
2022/05/17 07:22:37;;;;;;;16.13;5.65;;;;;;;;;;4959535;28;20051;-86
2022/05/17 07:25:03;;;;;;;18.13;5.85;;;;;;;;;;4975516;28;20047;-85
2022/05/17 07:27:29;;;;;;;16.08;5.50;;;;;;;;;;4975536;28;20050;-85
2022/05/17 07:29:55;;;;;;;13.60;5.55;;;;;;;;;;4975163;28;20050;-85
2022/05/17 07:32:21;;;;;;;15.50;5.25;;;;;;;;;;4979145;28;20230;-85
2022/05/17 07:34:47;;;;;;;14.45;5.40;;;;;;;;;;4996446;28;20049;-86
2022/05/17 07:37:13;;;;;;;12.18;4.88;;;;;;;;;;4978995;28;20117;-85
2022/05/17 07:39:40;;;;;;;12.55;5.45;;;;;;;;;;4979233;28;20048;-85
2022/05/17 07:42:06;;;;;;;13.07;4.85;;;;;;;;;;4962768;28;20089;-85
2022/05/17 07:44:33;;;;;;;12.05;4.90;;;;;;;;;;4996717;28;20046;-86
2022/05/17 07:46:59;;;;;;;14.30;5.47;;;;;;;;;;4979087;28;20042;-86
2022/05/17 07:49:25;;;;;;;14.20;5.28;;;;;;;;;;4979056;28;20546;-87
2022/05/17 07:51:51;;;;;;;13.15;4.60;;;;;;;;;;4978610;28;20125;-86
2022/05/17 07:54:16;;;;;;;15.02;5.10;;;;;;;;;;4996399;28;20449;-86
2022/05/17 07:56:42;;;;;;;14.35;4.80;;;;;;;;;;4978012;28;20038;-86
2022/05/17 07:59:08;;;;;;;12.68;4.65;;;;;;;;;;4977598;28;20081;-86
2022/05/17 08:01:34;;;;;;;13.77;4.90;;;;;;;;;;4978966;28;20042;-86
2022/05/17 08:04:00;;;;;;;15.68;4.97;;;;;;;;;;4996194;28;20042;-85
2022/05/17 08:06:26;;;;;;;11.38;5.05;;;;;;;;;;4995890;28;20042;-86
2022/05/17 08:08:52;;;;;;;14.35;5.05;;;;;;;;;;4978681;28;20035;-86
2022/05/17 08:11:18;;;;;;;12.52;5.32;;;;;;;;;;4996004;28;20045;-86
2022/05/17 08:13:44;;;;;;;14.07;4.60;;;;;;;;;;4978462;28;20402;-86
2022/05/17 08:16:10;;;;;;;13.43;5.07;;;;;;;;;;4978447;28;20050;-86
2022/05/17 08:18:36;;;;;;;15.40;5.07;;;;;;;;;;4978330;28;20173;-86
2022/05/17 08:21:02;;;;;;;13.43;4.95;;;;;;;;;;4995521;28;20055;-87
2022/05/17 08:23:28;;;;;;;12.98;5.10;;;;;;;;;;4996032;28;20043;-88
2022/05/17 08:28:39;;;;;;;13.10;5.28;;;;;;;;;;4996124;28;20042;-86
2022/05/17 08:31:05;;;;;;;14.15;4.68;;;;;;;;;;4995468;28;20512;-86
2022/05/17 08:33:30;;;;;;;17.98;4.93;;;;;;;;;;4978109;28;20100;-86
2022/05/17 08:36:01;;;;;;;10.35;4.85;;;;;;;;;;4995424;28;20046;-86
2022/05/17 08:38:32;;;;;;;13.13;4.18;;;;;;;;;;4977995;28;20047;-85
2022/05/17 08:41:23;;;;;;;12.98;3.60;;;;;;;;;;4977894;28;20038;-86
2022/05/17 08:43:55;;;;;;;12.73;3.78;;;;;;;;;;4977942;28;20486;-88
2022/05/17 08:46:27;;;;;;;12.27;3.70;;;;;;;;;;4995123;28;20038;-87
2022/05/17 08:48:55;;;;;;;12.07;3.78;;;;;;;;;;4978242;28;20046;-86
2022/05/17 08:51:30;;;;;;;10.02;2.95;;;;;;;;;;4977605;28;20044;-86
2022/05/17 08:53:56;;;;;;;;;;;;;;;;;;4995700;28;20054;-86
2022/05/17 08:56:22;;;;;;;;;;;;;;;;;;4995325;28;19918;-86
2022/05/17 08:58:50;;;;;;;14.00;4.30;;;;;;;;;;4977554;28;19964;-85
2022/05/17 09:01:28;;;;;;;11.57;3.33;;;;;;;;;;4994914;28;20050;-85
2022/05/17 09:04:07;;;;;;;12.10;3.70;;;;;;;;;;4977538;28;20043;-86
2022/05/17 09:06:59;;;;;;;11.43;3.45;;;;;;;;;;4995060;28;20069;-85
2022/05/17 09:09:28;;;;;;;11.93;3.40;;;;;;;;;;4924738;28;20093;-86
2022/05/17 09:11:56;;;;;;;10.20;3.47;;;;;;;;;;4977550;28;20501;-86
2022/05/17 09:14:32;;;;;;;19.25;4.53;;;;;;;;;;4977313;28;20070;-87
2022/05/17 09:17:06;;;;;;;14.52;3.53;;;;;;;;;;4977527;28;20441;-85
2022/05/17 09:19:32;;;;;;;13.07;3.95;;;;;;;;;;4977063;28;20074;-86
2022/05/17 09:22:02;;;;;;;11.00;3.30;;;;;;;;;;4977109;28;20082;-85
2022/05/17 09:24:30;;;;;;;9.73;2.85;;;;;;;;;;4977419;28;20056;-85
2022/05/17 09:27:02;;;;;;;8.90;2.33;;;;;;;;;;4993493;28;20445;-86
2022/05/17 09:29:34;;;;;;;11.23;2.65;;;;;;;;;;4977117;28;20046;-84
2022/05/17 09:32:01;;;;;;;8.65;2.20;;;;;;;;;;4977260;28;20042;-85
2022/05/17 09:34:32;;;;;;;8.13;2.50;;;;;;;;;;4994716;28;20074;-85
2022/05/17 09:37:03;;;;;;;9.20;2.30;;;;;;;;;;4976677;28;20049;-85
2022/05/17 09:39:30;;;;;;;13.70;2.60;;;;;;;;;;4977279;28;20462;-85
2022/05/17 09:41:57;;;;;;;9.45;2.70;;;;;;;;;;4955310;28;20126;-85
2022/05/17 09:44:25;;;;;;;7.97;2.30;;;;;;;;;;4976996;28;20034;-85
2022/05/17 09:46:55;;;;;;;9.45;2.58;;;;;;;;;;4975825;28;20053;-85
2022/05/17 09:52:46;;;;;;;8.95;2.53;;;;;;;;;;4974822;28;20043;-88
2022/05/17 09:55:15;;;;;;;10.63;2.20;;;;;;;;;;4938147;29;20164;-86
2022/05/17 09:57:51;;;;;;;12.43;2.05;;;;;;;;;;4954709;29;20039;-86
2022/05/17 10:00:22;;;;;;;7.15;1.90;;;;;;;;;;4955409;29;20113;-85
2022/05/17 10:02:55;;;;;;;7.68;2.15;;;;;;;;;;4937962;29;20051;-86
2022/05/17 10:05:24;;;;;;;10.38;1.90;;;;;;;;;;4937949;29;20050;-87
2022/05/17 10:08:05;;;;;;;9.00;2.45;;;;;;;;;;4937914;29;20557;-85
2022/05/17 10:10:35;;;;;;;9.80;2.13;;;;;;;;;;4938172;29;20105;-86
2022/05/17 10:13:23;;;;;;;10.48;2.63;;;;;;;;;;4937672;29;20051;-85
2022/05/17 10:15:53;;;;;;;11.48;2.33;;;;;;;;;;4938264;29;20054;-86
2022/05/17 10:18:37;;;;;;;10.68;2.55;;;;;;;;;;4954800;29;20163;-86
2022/05/17 10:21:08;;;;;;;9.18;2.20;;;;;;;;;;4937395;29;20122;-85
2022/05/17 10:23:40;;;;;;;314.83;20.08;;;;;;;;;;4937658;29;20059;-86
2022/05/17 10:26:08;;;;;;;8.85;2.42;;;;;;;;;;4955133;29;20042;-85
2022/05/17 10:28:34;;;;;;;8.05;2.30;;;;;;;;;;4937450;29;20074;-84
2022/05/17 10:31:03;;;;;;;10.88;2.30;;;;;;;;;;4936765;29;20082;-85
2022/05/17 10:33:35;;;;;;;13.23;3.00;;;;;;;;;;4937371;29;20148;-85
2022/05/17 10:36:08;;;;;;;8.52;2.17;;;;;;;;;;4938015;29;20039;-84
2022/05/17 10:38:38;;;;;;;6.38;1.85;;;;;;;;;;4954716;29;20039;-85
2022/05/17 10:41:05;;;;;;;8.02;2.47;;;;;;;;;;4937581;29;20074;-85
2022/05/17 10:43:40;;;;;;;10.00;2.75;;;;;;;;;;4937377;29;20058;-85
2022/05/17 10:46:06;;;;;;;9.77;2.50;;;;;;;;;;4937648;29;20078;-84
2022/05/17 10:48:35;;;;;;;10.07;2.42;;;;;;;;;;4954525;29;20083;-84
2022/05/17 10:51:08;;;;;;;9.32;1.73;;;;;;;;;;4937761;29;20051;-85
2022/05/17 10:53:49;;;;;;;9.50;2.00;;;;;;;;;;4972381;28;20449;-85
2022/05/17 10:56:22;;;;;;;7.88;2.13;;;;;;;;;;4973954;28;20039;-85
2022/05/17 10:58:49;;;;;;;8.43;2.33;;;;;;;;;;4973694;28;20097;-85
2022/05/17 11:01:20;;;;;;;7.90;2.17;;;;;;;;;;4956509;28;20548;-85
2022/05/17 11:04:01;;;;;;;7.10;1.45;;;;;;;;;;4973731;28;20046;-85
2022/05/17 11:06:33;;;;;;;9.63;1.75;;;;;;;;;;4956851;28;20055;-84
2022/05/17 11:09:10;;;;;;;8.05;1.83;;;;;;;;;;4956268;28;20431;-84
2022/05/17 11:11:40;;;;;;;9.15;1.63;;;;;;;;;;4956573;28;20046;-84
2022/05/17 11:14:10;;;;;;;7.78;1.88;;;;;;;;;;4956216;28;20123;-84
2022/05/17 11:16:40;;;;;;;7.03;1.80;;;;;;;;;;4974210;28;20042;-84
2022/05/17 11:19:09;;;;;;;9.07;2.45;;;;;;;;;;4955304;28;20043;-84
2022/05/17 11:21:49;;;;;;;7.82;2.05;;;;;;;;;;4973508;28;20058;-84
2022/05/17 11:24:24;;;;;;;8.90;2.03;;;;;;;;;;4956175;28;20047;-84
2022/05/17 11:26:58;;;;;;;5.78;1.60;;;;;;;;;;4973976;28;20035;-84
2022/05/17 11:29:50;;;;;;;7.60;1.73;;;;;;;;;;4956263;28;20089;-83
2022/05/17 11:32:22;;;;;;;7.95;1.90;;;;;;;;;;4941937;28;20043;-84
2022/05/17 11:34:48;;;;;;;9.23;1.48;;;;;;;;;;4960220;28;20082;-84
2022/05/17 11:37:32;;;;;;;6.53;1.27;;;;;;;;;;4977314;28;20066;-84
2022/05/17 11:40:07;;;;;;;6.87;1.40;;;;;;;;;;4974738;28;20052;-84
2022/05/17 11:45:44;;;;;;;7.10;1.00;;;;;;;;;;4977199;28;20050;-83
2022/05/17 11:48:15;;;;;;;5.50;1.20;;;;;;;;;;4943798;28;20453;-83
2022/05/17 11:50:42;;;;;;;9.40;1.70;;;;;;;;;;4959776;28;20042;-84
2022/05/17 11:53:23;;;;;;;8.25;1.60;;;;;;;;;;4976903;28;20130;-83
2022/05/17 11:56:08;;;;;;;7.55;1.58;;;;;;;;;;4959513;28;20500;-84
2022/05/17 11:58:34;;;;;;;6.85;1.42;;;;;;;;;;4959262;28;20548;-84
2022/05/17 12:01:00;;;;;;;8.52;1.73;;;;;;;;;;4977051;28;20058;-83
2022/05/17 12:03:45;;;;;;;6.35;1.42;;;;;;;;;;4959343;28;20499;-83
2022/05/17 12:06:27;;;;;;;6.32;1.80;;;;;;;;;;4960261;28;20564;-84
2022/05/17 12:08:53;;;;;;;10.23;1.70;;;;;;;;;;4959364;28;20512;-84
2022/05/17 12:11:22;;;;;;;6.43;1.40;;;;;;;;;;4976694;28;20039;-84
2022/05/17 12:14:08;;;;;;;8.60;2.10;;;;;;;;;;4943166;28;20047;-84
2022/05/17 12:16:35;;;;;;;4.78;1.30;;;;;;;;;;4959353;28;20046;-84
2022/05/17 12:19:02;;;;;;;6.13;1.58;;;;;;;;;;4976410;28;20070;-84
2022/05/17 12:21:37;;;;;;;6.63;1.30;;;;;;;;;;4976440;28;20058;-84
2022/05/17 12:24:10;;;;;;;7.43;1.50;;;;;;;;;;4976285;28;20043;-84
2022/05/17 12:26:36;;;;;;;8.25;1.73;;;;;;;;;;4959130;28;20046;-84
2022/05/17 12:30:53;;;;;;;10.50;1.95;;;;;;;;;;4976313;28;20039;-84
2022/05/17 12:32:01;;;;;;;8.80;1.70;;;;;;;;;;4976074;28;20046;-84
2022/05/17 12:34:27;;;;;;;7.18;1.42;;;;;;;;;;4958686;28;20478;-84
2022/05/17 12:37:07;;;;;;;8.75;1.48;;;;;;;;;;4958905;28;20039;-84
2022/05/17 12:45:04;;;;;;;8.95;1.80;;;;;;;;;;4975931;28;20051;-83
2022/05/17 12:47:57;;;;;;;7.65;1.35;;;;;;;;;;4958645;28;20042;-84
2022/05/17 12:50:24;;;;;;;16.58;2.17;;;;;;;;;;4955904;28;20091;-84
2022/05/17 12:52:54;;;;;;;8.90;1.58;;;;;;;;;;4975833;28;20130;-84
2022/05/17 12:55:22;;;;;;;6.28;1.17;;;;;;;;;;4975864;28;20085;-84
2022/05/17 12:57:48;;;;;;;8.52;1.88;;;;;;;;;;4942754;28;20042;-84
2022/05/17 13:00:23;;;;;;;6.07;1.70;;;;;;;;;;4958274;28;20046;-83
2022/05/17 13:02:51;;;;;;;9.80;1.70;;;;;;;;;;4942513;28;20055;-83
2022/05/17 13:05:24;;;;;;;7.55;1.67;;;;;;;;;;4975676;28;20074;-84
2022/05/17 13:08:16;;;;;;;7.05;1.10;;;;;;;;;;4938165;29;20108;-84
2022/05/17 13:10:43;;;;;;;6.00;1.60;;;;;;;;;;4937181;29;20061;-84
2022/05/17 13:13:16;;;;;;;6.15;1.38;;;;;;;;;;4938862;29;20317;-84
2022/05/17 13:15:50;;;;;;;4.88;1.20;;;;;;;;;;4956396;28;20046;-85
2022/05/17 13:18:17;;;;;;;6.80;1.38;;;;;;;;;;4938801;29;20057;-84
2022/05/17 13:20:48;;;;;;;6.93;1.55;;;;;;;;;;4955890;29;20059;-83
2022/05/17 13:23:15;;;;;;;6.93;1.40;;;;;;;;;;4955790;29;20061;-85
2022/05/17 13:25:42;;;;;;;15.13;2.05;;;;;;;;;;4938616;29;20047;-85
2022/05/17 13:28:10;;;;;;;9.02;1.67;;;;;;;;;;4938552;29;20103;-85
2022/05/17 13:30:41;;;;;;;8.10;1.75;;;;;;;;;;4938738;29;20062;-85
2022/05/17 13:33:09;;;;;;;6.22;1.30;;;;;;;;;;4938616;29;20552;-85
2022/05/17 13:35:37;;;;;;;7.15;1.40;;;;;;;;;;4938597;29;20035;-85
2022/05/17 13:38:05;;;;;;;7.60;1.42;;;;;;;;;;4938429;29;20047;-85
2022/05/17 13:40:34;;;;;;;6.07;1.42;;;;;;;;;;4955236;29;20046;-85
2022/05/17 13:43:00;;;;;;;6.88;1.35;;;;;;;;;;4956121;29;20047;-86
2022/05/17 13:45:38;;;;;;;7.38;1.50;;;;;;;;;;4938524;29;20050;-85
2022/05/17 13:48:04;;;;;;;7.10;1.45;;;;;;;;;;4939025;29;20069;-85
2022/05/17 13:50:31;;;;;;;7.22;1.65;;;;;;;;;;4938272;29;20055;-85
2022/05/17 13:53:02;;;;;;;8.43;1.80;;;;;;;;;;4938345;29;20129;-84
2022/05/17 13:55:28;;;;;;;7.85;1.48;;;;;;;;;;4938319;29;20039;-85
2022/05/17 13:57:55;;;;;;;11.85;1.73;;;;;;;;;;4938325;29;20527;-85
2022/05/17 14:00:23;;;;;;;8.88;1.50;;;;;;;;;;4955324;29;20078;-85
2022/05/17 14:02:49;;;;;;;7.65;1.92;;;;;;;;;;4938080;29;20054;-86
2022/05/17 14:05:18;;;;;;;9.15;1.65;;;;;;;;;;4937779;29;20047;-85
2022/05/17 14:11:49;;;;;;;12.88;1.85;;;;;;;;;;4937875;28;20053;-85
2022/05/17 14:13:33;;;;;;;7.10;1.50;;;;;;;;;;4955303;29;20055;-85
2022/05/17 14:16:00;;;;;;;11.52;2.55;;;;;;;;;;4937020;29;20383;-85
2022/05/17 14:18:37;;;;;;;12.18;1.98;;;;;;;;;;4937712;29;20118;-85
2022/05/17 14:21:05;;;;;;;8.60;2.03;;;;;;;;;;4953707;28;20090;-85
2022/05/17 14:23:32;;;;;;;7.20;1.55;;;;;;;;;;4937764;29;20059;-85
2022/05/17 14:25:58;;;;;;;6.65;1.25;;;;;;;;;;4936512;29;20073;-85
2022/05/17 14:28:24;;;;;;;6.00;1.67;;;;;;;;;;4954882;28;20047;-85
2022/05/17 14:30:50;;;;;;;6.78;1.50;;;;;;;;;;4936856;29;20517;-84
2022/05/17 14:33:19;;;;;;;7.60;1.45;;;;;;;;;;4954964;29;20054;-85
2022/05/17 14:35:45;;;;;;;9.73;1.75;;;;;;;;;;4953546;28;20039;-84
2022/05/17 14:38:11;;;;;;;5.85;1.60;;;;;;;;;;4937767;29;20471;-84
2022/05/17 14:40:37;;;;;;;5.28;1.45;;;;;;;;;;4936637;29;20106;-85
2022/05/17 14:43:04;;;;;;;5.43;1.38;;;;;;;;;;4937713;29;20051;-84
2022/05/17 14:45:30;;;;;;;7.75;1.60;;;;;;;;;;4953759;28;20094;-85
2022/05/17 14:47:57;;;;;;;6.65;1.48;;;;;;;;;;4937502;29;20407;-84
2022/05/17 14:50:23;;;;;;;8.45;1.48;;;;;;;;;;4954523;29;20175;-84
2022/05/17 14:52:50;;;;;;;5.82;1.48;;;;;;;;;;4937553;29;20051;-85
2022/05/17 14:55:20;;;;;;;6.40;1.40;;;;;;;;;;4954641;29;20078;-85
2022/05/17 14:57:46;;;;;;;5.38;1.52;;;;;;;;;;4937677;28;20407;-85
2022/05/17 15:00:14;;;;;;;7.03;1.40;;;;;;;;;;4937244;29;20046;-84
2022/05/17 15:02:41;;;;;;;5.50;1.38;;;;;;;;;;4937391;29;20138;-85
2022/05/17 15:05:08;;;;;;;7.00;1.40;;;;;;;;;;4921498;29;20130;-85
2022/05/17 15:07:35;;;;;;;4.88;1.50;;;;;;;;;;4956790;28;20043;-84